createdAt,value
2022-09-12T00:00:29.420Z,13.05
2022-09-12T00:10:51.987Z,10.38
2022-09-12T00:21:14.429Z,13.13
2022-09-12T00:31:36.910Z,13.15
2022-09-12T00:41:58.447Z,14.48
2022-09-12T00:52:25.416Z,16.05
2022-09-12T01:02:52.997Z,15.43
2022-09-12T01:13:15.778Z,13.07
2022-09-12T01:23:54.840Z,12.18
2022-09-12T01:34:21.497Z,13.05
2022-09-12T01:44:48.618Z,8.60
2022-09-12T01:55:13.800Z,11.90
2022-09-12T02:05:36.674Z,9.43
2022-09-12T02:16:00.872Z,13.07
2022-09-12T02:26:24.540Z,12.30
2022-09-12T02:36:52.129Z,14.30
2022-09-12T02:47:16.102Z,14.77
2022-09-12T02:57:38.809Z,9.73
2022-09-12T03:08:09.910Z,11.45
2022-09-12T03:18:42.026Z,13.10
2022-09-12T03:29:04.415Z,11.48
2022-09-12T03:39:27.938Z,8.93
2022-09-12T03:49:49.462Z,15.02
2022-09-12T04:00:16.391Z,10.75
2022-09-12T04:10:41.359Z,12.27
2022-09-12T04:21:06.454Z,12.38
2022-09-12T04:31:28.135Z,10.10
2022-09-12T04:41:51.695Z,13.63
2022-09-12T04:52:12.842Z,11.93
2022-09-12T05:02:35.649Z,14.10
2022-09-12T05:12:56.750Z,12.00
2022-09-12T05:23:19.530Z,10.60
2022-09-12T05:33:41.774Z,9.38
2022-09-12T05:44:05.358Z,13.00
2022-09-12T05:54:31.336Z,11.70
2022-09-12T06:04:53.974Z,12.80
2022-09-12T06:15:16.519Z,10.68
2022-09-12T06:25:38.967Z,14.80
2022-09-12T06:36:03.623Z,14.85
2022-09-12T06:46:26.196Z,19.88
2022-09-12T06:56:47.238Z,20.85
2022-09-12T07:07:10.258Z,13.65
2022-09-12T07:17:31.858Z,13.65
2022-09-12T07:27:55.358Z,11.77
2022-09-12T07:38:16.984Z,14.00
2022-09-12T07:48:40.276Z,8.15
2022-09-12T07:59:01.926Z,8.70
2022-09-12T08:09:24.677Z,8.57
2022-09-12T08:19:45.871Z,7.00
2022-09-12T08:30:09.853Z,6.32
2022-09-12T08:40:30.956Z,14.23
2022-09-12T08:50:53.729Z,4.95
2022-09-12T09:01:19.880Z,4.90
2022-09-12T09:11:50.860Z,6.53
2022-09-12T09:22:13.620Z,3.88
2022-09-12T09:32:37.748Z,3.50
2022-09-12T09:43:02.467Z,3.50
2022-09-12T09:53:29.671Z,3.97
2022-09-12T10:03:51.662Z,3.33
2022-09-12T10:14:28.115Z,2.40
2022-09-12T10:24:52.346Z,4.55
2022-09-12T10:35:19.411Z,4.30
2022-09-12T10:45:40.782Z,3.47
2022-09-12T10:56:08.875Z,4.15
2022-09-12T11:06:36.187Z,2.85
2022-09-12T11:17:02.259Z,3.58
2022-09-12T11:27:33.989Z,3.92
2022-09-12T11:38:02.917Z,3.75
2022-09-12T11:48:33.362Z,4.57
2022-09-12T11:58:59.548Z,2.53
2022-09-12T12:09:20.958Z,2.97
2022-09-12T12:19:43.783Z,2.55
2022-09-12T12:40:29.554Z,2.22
2022-09-12T12:50:50.675Z,3.75
2022-09-12T13:01:15.015Z,3.30
2022-09-12T13:11:37.744Z,2.40
2022-09-12T13:22:03.115Z,3.72
2022-09-12T13:32:30.820Z,2.22
2022-09-12T13:42:54.724Z,2.05
2022-09-12T13:53:17.046Z,4.85
2022-09-12T14:03:59.549Z,2.37
2022-09-12T14:14:22.177Z,2.77
2022-09-12T14:24:50.416Z,7.65
2022-09-12T14:36:10.999Z,3.95
2022-09-12T14:46:34.623Z,2.83
2022-09-12T14:56:57.545Z,2.70
2022-09-12T15:07:25.727Z,2.80
2022-09-12T15:17:47.694Z,5.13
2022-09-12T15:28:16.682Z,3.75
2022-09-12T15:38:38.344Z,4.13
2022-09-12T15:49:01.301Z,2.83
2022-09-12T15:59:22.501Z,2.90
2022-09-12T16:09:46.266Z,3.45
2022-09-12T16:20:08.556Z,4.57
2022-09-12T16:30:31.542Z,3.42
2022-09-12T16:40:52.988Z,3.65
2022-09-12T16:51:16.161Z,9.43
2022-09-12T17:01:37.546Z,6.63
2022-09-12T17:12:00.697Z,9.93
2022-09-12T17:22:22.031Z,9.43
2022-09-12T17:32:44.679Z,11.55
2022-09-12T17:43:06.252Z,8.85
2022-09-12T17:53:32.652Z,12.85
2022-09-12T18:03:57.225Z,9.52
2022-09-12T18:14:20.298Z,7.68
2022-09-12T18:24:41.716Z,12.43
2022-09-12T18:35:04.267Z,11.25
2022-09-12T18:45:25.761Z,10.85
2022-09-12T18:55:48.543Z,11.82
2022-09-12T19:06:11.763Z,10.73
2022-09-12T19:16:37.807Z,8.25
2022-09-12T19:26:58.937Z,9.10
2022-09-12T19:37:21.721Z,7.70
2022-09-12T19:47:43.152Z,9.05
2022-09-12T19:58:06.613Z,8.75
2022-09-12T20:08:27.607Z,11.80
2022-09-12T20:18:53.548Z,11.38
2022-09-12T20:29:14.889Z,8.80
2022-09-12T20:39:37.482Z,10.00
2022-09-12T20:49:58.601Z,9.95
2022-09-12T21:00:22.293Z,12.35
2022-09-12T21:10:43.986Z,9.50
2022-09-12T21:21:06.894Z,10.77
2022-09-12T21:31:28.467Z,8.48
2022-09-12T21:41:51.137Z,9.02
2022-09-12T21:52:13.470Z,12.05
2022-09-12T22:02:36.741Z,9.38
2022-09-12T22:12:58.102Z,9.90
2022-09-12T22:23:37.843Z,10.35
2022-09-12T22:33:59.693Z,8.02
2022-09-12T22:44:22.446Z,9.23
2022-09-12T22:54:44.056Z,9.98
2022-09-12T23:05:06.982Z,8.75
2022-09-12T23:15:28.259Z,9.63
2022-09-12T23:25:52.383Z,8.85
2022-09-12T23:36:14.516Z,9.02
2022-09-12T23:46:37.326Z,8.43
2022-09-12T23:56:58.952Z,6.93
